Time;durP1;ratioP1;P1;durP2;ratioP2;P2;SDS_P1;SDS_P2;PMS_P1;PMS_P2;Temp;Humidity;BMP_temperature;BMP_pressure;BME280_temperature;BME280_humidity;BME280_pressure;Samples;Min_cycle;Max_cycle;Signal;HPM_P1;HPM_P2
2023/06/22 00:01:32;;;;;;;19.85;16.65;;;19.60;99.90;;;;;;4927214;29;20109;-92
2023/06/22 00:03:58;;;;;;;20.80;16.27;;;19.60;99.90;;;;;;4913571;29;20395;-90
2023/06/22 00:06:27;;;;;;;24.33;19.63;;;19.60;99.90;;;;;;4928130;29;20067;-89
2023/06/22 00:08:53;;;;;;;26.52;20.33;;;19.60;99.90;;;;;;4930179;29;20499;-90
2023/06/22 00:11:20;;;;;;;22.65;16.83;;;19.90;99.90;;;;;;4914065;29;20054;-89
2023/06/22 00:13:47;;;;;;;20.70;17.58;;;19.50;99.90;;;;;;4940065;29;20050;-90
2023/06/22 00:16:19;;;;;;;25.58;20.55;;;19.50;99.90;;;;;;4918133;29;20036;-90
2023/06/22 00:18:47;;;;;;;24.73;18.48;;;19.40;99.90;;;;;;4947260;28;20095;-90
2023/06/22 00:21:13;;;;;;;22.88;15.15;;;19.20;99.90;;;;;;4925563;29;20467;-91
2023/06/22 00:23:39;;;;;;;22.95;18.10;;;19.40;99.90;;;;;;4915774;29;20058;-90
2023/06/22 00:26:08;;;;;;;33.53;24.23;;;19.40;99.90;;;;;;4937105;29;20027;-90
2023/06/22 00:28:37;;;;;;;27.67;21.83;;;19.40;99.90;;;;;;4935448;29;20057;-90
2023/06/22 00:31:06;;;;;;;30.60;22.60;;;19.40;99.90;;;;;;4931642;29;20040;-90
2023/06/22 00:33:32;;;;;;;27.60;20.50;;;19.20;99.90;;;;;;4948973;29;20462;-91
2023/06/22 00:36:02;;;;;;;24.85;21.25;;;19.30;99.90;;;;;;4932720;29;20052;-91
2023/06/22 00:38:34;;;;;;;24.40;18.27;;;19.30;99.90;;;;;;4914529;29;20039;-88
2023/06/22 00:41:00;;;;;;;26.55;21.73;;;19.30;99.90;;;;;;4911161;29;20051;-91
2023/06/22 00:43:26;;;;;;;28.58;23.98;;;19.30;99.90;;;;;;4948451;28;20047;-90
2023/06/22 00:45:56;;;;;;;24.83;19.85;;;19.20;99.90;;;;;;4929934;29;20539;-92
2023/06/22 00:48:43;;;;;;;28.05;20.13;;;19.20;99.90;;;;;;4928271;29;20040;-90
2023/06/22 00:51:16;;;;;;;;;;;19.10;99.90;;;;;;4933016;29;20044;-90
2023/06/22 00:53:43;;;;;;;23.80;15.73;;;19.10;99.90;;;;;;4936681;29;19926;-90
2023/06/22 00:56:12;;;;;;;24.58;18.80;;;19.00;99.90;;;;;;4948816;29;20083;-91
2023/06/22 00:58:59;;;;;;;27.10;22.55;;;19.00;99.90;;;;;;4947786;28;20622;-90
2023/06/22 01:01:28;;;;;;;30.90;23.38;;;19.30;99.90;;;;;;4942762;29;20055;-91
2023/06/22 01:03:58;;;;;;;28.63;22.20;;;18.90;99.90;;;;;;4924171;29;20043;-90
2023/06/22 01:06:56;;;;;;;26.45;21.23;;;18.90;99.90;;;;;;4925055;29;20074;-90
2023/06/22 01:09:32;;;;;;;25.35;20.85;;;18.80;99.90;;;;;;4924045;29;20454;-90
2023/06/22 01:12:03;;;;;;;29.40;22.08;;;18.80;99.90;;;;;;4936366;29;20107;-90
2023/06/22 01:14:58;;;;;;;30.08;21.15;;;18.70;99.90;;;;;;4926101;29;20050;-90
2023/06/22 01:17:26;;;;;;;33.00;26.45;;;18.80;99.90;;;;;;4930198;29;20047;-91
2023/06/22 01:19:55;;;;;;;27.33;20.90;;;18.60;99.90;;;;;;4935640;29;20070;-90
2023/06/22 01:22:29;;;;;;;22.55;17.83;;;18.70;99.90;;;;;;4922076;29;20139;-90
2023/06/22 01:25:07;;;;;;;29.83;24.30;;;18.80;99.90;;;;;;4946460;28;20040;-90
2023/06/22 01:27:49;;;;;;;28.80;23.30;;;18.70;99.90;;;;;;4943576;28;20053;-91
2023/06/22 01:30:17;;;;;;;27.35;21.55;;;18.70;99.90;;;;;;4931814;29;20095;-90
2023/06/22 01:32:43;;;;;;;26.08;19.63;;;18.60;99.90;;;;;;4949297;29;20043;-90
2023/06/22 01:35:10;;;;;;;30.58;22.23;;;18.60;99.90;;;;;;4934135;29;20039;-90
2023/06/22 01:37:38;;;;;;;35.03;26.73;;;18.60;99.90;;;;;;4928605;29;20041;-90
2023/06/22 01:40:08;;;;;;;23.90;18.58;;;18.50;99.90;;;;;;4932100;29;20046;-90
2023/06/22 01:42:38;;;;;;;26.27;18.67;;;18.50;99.90;;;;;;4931215;28;20102;-90
2023/06/22 01:45:05;;;;;;;23.48;18.42;;;18.50;99.90;;;;;;4931826;29;20043;-91
2023/06/22 01:47:31;;;;;;;22.73;17.33;;;18.50;99.90;;;;;;4920071;29;20043;-91
2023/06/22 01:50:00;;;;;;;35.75;29.08;;;18.40;99.90;;;;;;4921191;29;20039;-91
2023/06/22 01:52:30;;;;;;;39.10;28.73;;;18.40;99.90;;;;;;4934621;29;20189;-90
2023/06/22 01:54:57;;;;;;;30.67;23.58;;;18.40;99.90;;;;;;4931263;29;20058;-90
2023/06/22 01:57:24;;;;;;;34.83;28.55;;;18.40;99.90;;;;;;4912887;29;20047;-91
2023/06/22 02:00:04;;;;;;;34.65;26.13;;;18.30;99.90;;;;;;4915038;29;20487;-90
2023/06/22 02:02:37;;;;;;;24.58;18.13;;;18.30;99.90;;;;;;4946656;29;20384;-90
2023/06/22 02:05:14;;;;;;;25.33;19.92;;;18.30;99.90;;;;;;4949071;29;20043;-90
2023/06/22 02:07:47;;;;;;;32.95;25.80;;;18.30;99.90;;;;;;4917446;29;20082;-91
2023/06/22 02:10:15;;;;;;;23.17;18.48;;;18.30;99.90;;;;;;4933344;29;20102;-90
2023/06/22 02:12:44;;;;;;;26.15;19.55;;;18.20;99.90;;;;;;4936690;29;20047;-90
2023/06/22 02:15:12;;;;;;;26.92;21.20;;;18.10;99.90;;;;;;4931117;29;20103;-90
2023/06/22 02:17:44;;;;;;;35.22;27.65;;;18.30;99.90;;;;;;4930052;28;20520;-91
2023/06/22 02:20:14;;;;;;;28.90;24.13;;;18.10;99.90;;;;;;4928953;29;20114;-91
2023/06/22 02:22:41;;;;;;;27.20;22.52;;;18.10;99.90;;;;;;4921919;29;20498;-91
2023/06/22 02:25:07;;;;;;;23.23;17.35;;;18.10;99.90;;;;;;4902159;29;20067;-91
2023/06/22 02:27:33;;;;;;;23.80;19.02;;;18.10;99.90;;;;;;4953412;29;20034;-91
2023/06/22 02:29:59;;;;;;;25.77;20.90;;;18.10;99.90;;;;;;4914709;29;20043;-91
2023/06/22 02:32:24;;;;;;;30.65;25.20;;;18.20;99.90;;;;;;4917245;29;20044;-91
2023/06/22 02:34:50;;;;;;;27.17;20.42;;;18.10;99.90;;;;;;4920086;29;20166;-90
2023/06/22 02:37:16;;;;;;;33.22;24.50;;;18.10;99.90;;;;;;4918745;29;20160;-92
2023/06/22 02:39:43;;;;;;;22.75;17.77;;;18.00;99.90;;;;;;4943146;29;20114;-91
2023/06/22 02:42:10;;;;;;;24.67;19.85;;;17.90;99.90;;;;;;4916805;29;20040;-91
2023/06/22 02:44:36;;;;;;;27.95;21.23;;;17.90;99.90;;;;;;4926996;29;20051;-91
2023/06/22 02:47:02;;;;;;;31.77;25.65;;;17.90;99.90;;;;;;4930444;29;20039;-91
2023/06/22 02:49:28;;;;;;;24.95;18.80;;;17.90;99.90;;;;;;4935288;29;20054;-91
2023/06/22 02:51:55;;;;;;;28.15;21.42;;;17.90;99.90;;;;;;4921148;29;20039;-91
2023/06/22 02:54:20;;;;;;;34.35;26.15;;;17.90;99.90;;;;;;4946487;29;20455;-91
2023/06/22 02:56:47;;;;;;;23.60;17.52;;;17.90;99.90;;;;;;4944928;28;20130;-90
2023/06/22 02:59:13;;;;;;;29.08;23.73;;;17.90;99.90;;;;;;4930478;29;20102;-91
2023/06/22 03:01:42;;;;;;;32.15;25.27;;;17.90;99.90;;;;;;4940085;29;20035;-91
2023/06/22 03:04:08;;;;;;;24.20;18.75;;;17.90;99.90;;;;;;4946336;29;20040;-91
2023/06/22 03:06:35;;;;;;;25.30;20.25;;;17.90;99.90;;;;;;4930712;29;20050;-92
2023/06/22 03:09:03;;;;;;;24.20;18.75;;;17.80;99.90;;;;;;4926535;29;20039;-91
2023/06/22 03:11:30;;;;;;;25.80;19.73;;;17.80;99.90;;;;;;4918730;29;20047;-91
2023/06/22 03:13:56;;;;;;;27.27;22.45;;;17.80;99.90;;;;;;4942945;29;20047;-92
2023/06/22 03:16:22;;;;;;;26.17;21.10;;;17.80;99.90;;;;;;4930576;29;20111;-91
2023/06/22 03:18:48;;;;;;;29.50;24.75;;;17.80;99.90;;;;;;4937235;29;20134;-91
2023/06/22 03:21:15;;;;;;;30.60;23.40;;;17.80;99.90;;;;;;4936578;29;20031;-91
2023/06/22 03:23:41;;;;;;;29.35;25.42;;;17.90;99.90;;;;;;4934531;29;20035;-91
2023/06/22 03:26:08;;;;;;;29.60;24.95;;;17.90;99.90;;;;;;4927643;29;20050;-92
2023/06/22 03:28:35;;;;;;;22.85;18.42;;;17.90;99.90;;;;;;4943783;29;20134;-91
2023/06/22 03:31:00;;;;;;;33.92;28.58;;;17.90;99.90;;;;;;4948681;29;20285;-92
2023/06/22 03:33:26;;;;;;;27.20;23.13;;;17.90;99.90;;;;;;4926848;29;20043;-91
2023/06/22 03:35:53;;;;;;;31.25;27.05;;;17.90;99.90;;;;;;4954380;28;20035;-92
2023/06/22 03:38:19;;;;;;;30.92;26.45;;;17.90;99.90;;;;;;4920069;29;20106;-91
2023/06/22 03:40:45;;;;;;;25.50;21.42;;;17.90;99.90;;;;;;4941934;29;20043;-91
2023/06/22 03:43:10;;;;;;;28.70;22.50;;;17.90;99.90;;;;;;4922097;28;20602;-91
2023/06/22 03:45:37;;;;;;;28.38;23.30;;;17.90;99.90;;;;;;4930956;29;20036;-91
2023/06/22 03:48:03;;;;;;;32.38;26.77;;;17.90;99.90;;;;;;4938832;29;20058;-91
2023/06/22 03:50:29;;;;;;;29.90;25.60;;;17.90;99.90;;;;;;4955662;29;20043;-92
2023/06/22 03:52:55;;;;;;;24.70;20.33;;;17.90;99.90;;;;;;4953832;29;20047;-92
2023/06/22 03:55:21;;;;;;;28.38;23.48;;;17.90;99.90;;;;;;4950841;29;20328;-91
2023/06/22 03:57:47;;;;;;;29.73;26.20;;;17.90;99.90;;;;;;4950892;29;20043;-92
2023/06/22 04:00:15;;;;;;;30.40;25.80;;;17.80;99.90;;;;;;4939541;29;20047;-91
2023/06/22 04:02:41;;;;;;;23.63;20.67;;;17.90;99.90;;;;;;4965746;28;20043;-92
2023/06/22 04:05:09;;;;;;;28.00;24.63;;;17.90;99.90;;;;;;4967679;29;20087;-91
2023/06/22 04:07:36;;;;;;;28.17;22.88;;;17.90;99.90;;;;;;4944764;29;20038;-91
2023/06/22 04:10:04;;;;;;;21.02;17.55;;;17.90;99.90;;;;;;4950289;29;20098;-93
2023/06/22 04:12:29;;;;;;;36.63;28.70;;;17.90;99.90;;;;;;4948898;28;20035;-92
2023/06/22 04:14:55;;;;;;;28.27;24.73;;;17.80;99.90;;;;;;4918411;29;20466;-92
2023/06/22 04:17:21;;;;;;;34.25;28.58;;;17.90;99.90;;;;;;4928853;29;20117;-91
2023/06/22 04:19:47;;;;;;;33.63;27.95;;;17.90;99.90;;;;;;4933436;29;20070;-91
2023/06/22 04:22:13;;;;;;;29.20;24.67;;;17.90;99.90;;;;;;4926526;29;20075;-90
2023/06/22 04:24:38;;;;;;;21.95;18.75;;;17.90;99.90;;;;;;4937688;29;20495;-92
2023/06/22 04:27:05;;;;;;;42.60;34.15;;;17.90;99.90;;;;;;4932110;28;20051;-90
2023/06/22 04:29:31;;;;;;;41.45;32.70;;;17.90;99.90;;;;;;4951471;29;20087;-91
2023/06/22 04:31:58;;;;;;;31.13;24.73;;;17.90;99.90;;;;;;4934897;29;20519;-90
2023/06/22 04:34:27;;;;;;;30.02;26.48;;;18.00;99.90;;;;;;4929500;29;20051;-91
2023/06/22 04:36:53;;;;;;;22.98;19.90;;;17.90;99.90;;;;;;4945363;29;20103;-90
2023/06/22 04:39:19;;;;;;;38.25;31.55;;;17.90;99.90;;;;;;4935813;29;20161;-92
2023/06/22 04:41:45;;;;;;;40.92;32.85;;;17.90;99.90;;;;;;4956563;28;20054;-92
2023/06/22 04:44:31;;;;;;;41.22;33.58;;;18.20;99.90;;;;;;4939385;29;20051;-91
2023/06/22 04:47:08;;;;;;;45.10;37.83;;;17.90;99.90;;;;;;4916836;29;20094;-91
2023/06/22 04:49:37;;;;;;;50.35;36.67;;;17.90;99.90;;;;;;4920230;29;20039;-91
2023/06/22 04:52:17;;;;;;;45.97;35.58;;;18.00;99.90;;;;;;4918836;29;20434;-89
2023/06/22 04:54:47;;;;;;;42.15;34.75;;;18.00;99.90;;;;;;4944567;28;20043;-91
2023/06/22 04:57:17;;;;;;;39.33;31.48;;;18.00;99.90;;;;;;4918430;29;20036;-92
2023/06/22 04:59:43;;;;;;;43.92;34.40;;;18.00;99.90;;;;;;4949420;29;20078;-91
2023/06/22 05:02:09;;;;;;;44.10;35.70;;;18.00;99.90;;;;;;4919868;29;20039;-91
2023/06/22 05:04:38;;;;;;;47.47;37.30;;;18.10;99.90;;;;;;4941499;28;20066;-92
2023/06/22 05:07:07;;;;;;;45.78;35.00;;;18.00;99.90;;;;;;4950550;28;20031;-91
2023/06/22 05:09:36;;;;;;;45.17;34.67;;;18.00;99.90;;;;;;4950686;29;20059;-91
2023/06/22 05:12:04;;;;;;;44.58;33.33;;;18.10;99.90;;;;;;4951377;29;20048;-91
2023/06/22 05:14:30;;;;;;;45.10;36.58;;;18.10;99.90;;;;;;4938768;29;20067;-91
2023/06/22 05:16:58;;;;;;;46.50;34.13;;;18.10;99.90;;;;;;4922469;29;20051;-91
2023/06/22 05:19:50;;;;;;;55.17;39.83;;;18.10;99.90;;;;;;4949780;28;20058;-92
2023/06/22 05:22:19;;;;;;;45.20;35.75;;;18.10;99.90;;;;;;4955098;29;20067;-89
2023/06/22 05:24:54;;;;;;;55.63;40.05;;;18.10;99.90;;;;;;4957407;29;20043;-92
2023/06/22 05:27:20;;;;;;;36.15;28.23;;;18.20;99.90;;;;;;4945106;29;20035;-90
2023/06/22 05:29:45;;;;;;;33.10;25.83;;;18.20;99.90;;;;;;4939324;29;20051;-88
2023/06/22 05:32:12;;;;;;;41.13;31.23;;;18.20;99.90;;;;;;4931612;29;20051;-90
2023/06/22 05:34:39;;;;;;;47.20;36.63;;;18.30;99.90;;;;;;4941795;29;20050;-88
2023/06/22 05:37:06;;;;;;;44.00;33.47;;;18.30;99.90;;;;;;4935757;29;20082;-89
2023/06/22 05:39:32;;;;;;;49.63;38.38;;;18.30;99.90;;;;;;4942279;29;20036;-91
2023/06/22 05:41:58;;;;;;;39.63;30.92;;;18.40;99.90;;;;;;4952786;28;20051;-90
2023/06/22 05:44:24;;;;;;;39.60;29.92;;;18.50;99.90;;;;;;4933839;29;20040;-91
2023/06/22 05:46:50;;;;;;;47.88;36.58;;;18.50;99.90;;;;;;4932262;29;20181;-89
2023/06/22 05:49:16;;;;;;;53.42;37.47;;;18.50;99.90;;;;;;4932694;29;20061;-89
2023/06/22 05:51:42;;;;;;;45.00;33.22;;;18.60;99.90;;;;;;4940591;29;20043;-88
2023/06/22 05:54:08;;;;;;;35.38;27.05;;;18.60;99.90;;;;;;4948359;28;20758;-89
2023/06/22 05:56:34;;;;;;;44.42;33.95;;;18.70;99.90;;;;;;4949129;28;20082;-89
2023/06/22 05:59:00;;;;;;;44.70;30.88;;;18.70;99.90;;;;;;4934696;29;20126;-88
2023/06/22 06:01:26;;;;;;;38.53;30.98;;;18.80;99.90;;;;;;4935868;29;20047;-86
2023/06/22 06:03:52;;;;;;;38.72;29.33;;;18.80;99.90;;;;;;4933364;29;20039;-88
2023/06/22 06:06:21;;;;;;;32.35;26.98;;;18.90;99.90;;;;;;4937222;29;20050;-87
2023/06/22 06:08:49;;;;;;;32.17;24.25;;;18.90;99.90;;;;;;4932491;29;20062;-87
2023/06/22 06:11:15;;;;;;;31.13;24.77;;;18.90;99.90;;;;;;4951726;28;20106;-94
2023/06/22 06:13:41;;;;;;;32.35;24.00;;;19.00;99.90;;;;;;4939247;29;20050;-88
2023/06/22 06:16:06;;;;;;;31.17;24.67;;;19.10;99.90;;;;;;4952631;28;20047;-87
2023/06/22 06:18:32;;;;;;;31.00;23.60;;;19.00;99.90;;;;;;4914125;29;20130;-88
2023/06/22 06:20:58;;;;;;;27.33;23.52;;;19.10;99.90;;;;;;4944050;28;20047;-87
2023/06/22 06:23:23;;;;;;;28.48;24.40;;;19.20;99.90;;;;;;4932271;29;20039;-88
2023/06/22 06:25:49;;;;;;;28.67;25.33;;;19.20;99.90;;;;;;4927101;28;20086;-87
2023/06/22 06:28:15;;;;;;;26.85;23.20;;;19.20;99.90;;;;;;4948635;28;20613;-87
2023/06/22 06:30:41;;;;;;;26.48;23.40;;;19.30;99.90;;;;;;4948037;29;20379;-86
2023/06/22 06:33:08;;;;;;;25.95;21.80;;;19.20;99.90;;;;;;4946661;29;20055;-88
2023/06/22 06:35:34;;;;;;;29.95;23.83;;;19.30;99.90;;;;;;4940122;29;20093;-86
2023/06/22 06:38:00;;;;;;;26.20;21.95;;;19.40;99.90;;;;;;4910789;28;20039;-86
2023/06/22 06:40:26;;;;;;;28.13;23.45;;;19.50;99.90;;;;;;4947152;28;20138;-92
2023/06/22 06:42:51;;;;;;;27.73;21.33;;;19.50;99.90;;;;;;4950323;28;20039;-87
2023/06/22 06:45:22;;;;;;;25.00;20.40;;;19.60;99.90;;;;;;4922450;28;20483;-91
2023/06/22 06:47:48;;;;;;;22.92;20.08;;;19.60;99.90;;;;;;4942032;29;20040;-93
2023/06/22 06:50:14;;;;;;;24.35;21.70;;;19.70;99.90;;;;;;4962357;29;20031;-93
2023/06/22 06:52:41;;;;;;;25.80;20.17;;;19.80;99.90;;;;;;4923872;28;20038;-92
2023/06/22 06:55:11;;;;;;;23.67;19.58;;;19.90;99.90;;;;;;4938429;28;20113;-93
2023/06/22 06:57:38;;;;;;;23.55;18.67;;;20.00;99.90;;;;;;4922317;29;20411;-93
2023/06/22 07:00:09;;;;;;;21.52;17.60;;;20.10;99.90;;;;;;4938119;29;20129;-91
2023/06/22 07:02:35;;;;;;;20.55;17.40;;;20.20;99.90;;;;;;4956321;28;20058;-91
2023/06/22 07:05:04;;;;;;;19.30;14.88;;;20.30;99.90;;;;;;4937072;29;20048;-91
2023/06/22 07:07:30;;;;;;;19.95;15.25;;;20.40;99.90;;;;;;4934834;29;20040;-90
2023/06/22 07:09:56;;;;;;;19.35;15.40;;;20.50;99.90;;;;;;4952243;28;20163;-89
2023/06/22 07:12:21;;;;;;;19.15;14.55;;;20.60;99.90;;;;;;4937105;29;20079;-91
2023/06/22 07:14:47;;;;;;;16.90;13.45;;;20.60;99.90;;;;;;4925463;29;20463;-90
2023/06/22 07:17:13;;;;;;;17.45;13.18;;;20.70;99.90;;;;;;4939645;29;20043;-91
2023/06/22 07:19:38;;;;;;;15.52;12.60;;;20.80;99.90;;;;;;4918229;29;20040;-90
2023/06/22 07:22:04;;;;;;;15.02;12.10;;;20.90;99.90;;;;;;4938335;29;20070;-89
2023/06/22 07:24:32;;;;;;;17.42;11.52;;;21.10;99.90;;;;;;4923128;29;20047;-92
2023/06/22 07:26:58;;;;;;;11.63;9.07;;;21.20;99.90;;;;;;4925336;29;20091;-90
2023/06/22 07:29:26;;;;;;;12.20;9.55;;;21.30;99.90;;;;;;4923516;29;20126;-91
2023/06/22 07:31:52;;;;;;;11.45;9.18;;;21.40;99.90;;;;;;4948298;29;20043;-90
2023/06/22 07:34:19;;;;;;;12.75;9.02;;;21.40;99.90;;;;;;4934059;29;20035;-91
2023/06/22 07:36:46;;;;;;;11.98;8.77;;;21.40;99.90;;;;;;4951180;29;20054;-91
2023/06/22 07:39:12;;;;;;;12.15;8.93;;;21.40;99.90;;;;;;4926967;29;20122;-91
2023/06/22 07:41:39;;;;;;;11.77;8.48;;;21.50;99.90;;;;;;4934374;29;20495;-91
2023/06/22 07:44:06;;;;;;;9.52;7.10;;;21.60;99.90;;;;;;4918782;29;20037;-91
2023/06/22 07:46:32;;;;;;;10.98;7.00;;;21.80;99.90;;;;;;4928000;29;20056;-92
2023/06/22 07:48:58;;;;;;;10.90;6.43;;;22.00;99.90;;;;;;4937125;29;20054;-92
2023/06/22 07:51:24;;;;;;;8.80;6.38;;;22.20;99.90;;;;;;4949081;29;20483;-91
2023/06/22 07:53:49;;;;;;;9.10;6.28;;;22.40;99.90;;;;;;4943338;29;20445;-92
2023/06/22 07:56:18;;;;;;;8.90;5.60;;;22.60;99.90;;;;;;4944577;28;20051;-92
2023/06/22 07:58:45;;;;;;;7.25;4.30;;;22.80;99.90;;;;;;4927112;29;20044;-92
2023/06/22 08:01:11;;;;;;;8.95;4.90;;;22.90;99.90;;;;;;4930002;29;20502;-91
2023/06/22 08:03:37;;;;;;;6.97;4.38;;;23.00;99.90;;;;;;4928285;29;20031;-92
2023/06/22 08:06:03;;;;;;;6.63;4.25;;;23.20;99.90;;;;;;4923778;29;20044;-91
2023/06/22 08:08:29;;;;;;;7.25;4.95;;;23.30;99.90;;;;;;4930597;29;20043;-92
2023/06/22 08:10:55;;;;;;;12.00;6.00;;;23.40;99.90;;;;;;4913565;29;20048;-92
2023/06/22 08:13:20;;;;;;;8.90;5.55;;;23.50;99.90;;;;;;4947023;29;20035;-91
2023/06/22 08:15:46;;;;;;;8.85;5.65;;;23.60;99.90;;;;;;4913898;29;20042;-92
2023/06/22 08:18:12;;;;;;;6.90;4.75;;;23.70;99.90;;;;;;4931357;29;20285;-93
2023/06/22 08:20:37;;;;;;;7.97;5.40;;;23.70;99.90;;;;;;4927552;29;20107;-92
2023/06/22 08:23:06;;;;;;;8.43;5.78;;;23.90;99.90;;;;;;4931751;29;20050;-92
2023/06/22 08:25:35;;;;;;;12.35;4.80;;;23.90;99.90;;;;;;4918473;29;20039;-90
2023/06/22 08:28:02;;;;;;;7.95;5.30;;;24.00;99.90;;;;;;4930008;29;20059;-92
2023/06/22 08:30:27;;;;;;;7.72;4.78;;;24.00;99.90;;;;;;4929192;29;20048;-93
2023/06/22 08:32:54;;;;;;;8.15;5.57;;;24.10;99.90;;;;;;4932180;29;20035;-91
2023/06/22 08:35:20;;;;;;;9.77;6.05;;;24.10;99.90;;;;;;4928584;29;20043;-92
2023/06/22 08:37:50;;;;;;;7.43;4.53;;;24.20;99.90;;;;;;4940766;29;20035;-92
2023/06/22 08:40:16;;;;;;;9.50;5.05;;;24.30;99.90;;;;;;4923014;29;20106;-91
2023/06/22 08:42:41;;;;;;;8.25;4.93;;;24.30;99.90;;;;;;4921057;29;21486;-93
2023/06/22 08:45:08;;;;;;;7.35;5.20;;;24.40;99.90;;;;;;4929952;29;20418;-91
2023/06/22 08:47:33;;;;;;;13.15;6.22;;;24.40;99.90;;;;;;4926942;29;20046;-92
2023/06/22 08:50:01;;;;;;;8.30;5.63;;;24.40;99.90;;;;;;4945145;29;20035;-91
2023/06/22 08:52:27;;;;;;;9.07;6.10;;;24.30;99.90;;;;;;4937033;29;20501;-90
2023/06/22 08:54:53;;;;;;;7.75;5.50;;;24.20;99.90;;;;;;4944727;29;20094;-90
2023/06/22 08:57:18;;;;;;;9.43;6.57;;;24.10;99.90;;;;;;4929265;29;20187;-90
2023/06/22 08:59:44;;;;;;;8.68;5.43;;;24.00;99.90;;;;;;4916133;29;20051;-91
2023/06/22 09:02:10;;;;;;;9.02;5.68;;;24.00;99.90;;;;;;4927375;29;20129;-90
2023/06/22 09:04:35;;;;;;;8.50;5.82;;;24.00;99.90;;;;;;4926551;29;20042;-89
2023/06/22 09:07:02;;;;;;;8.43;5.53;;;24.00;99.90;;;;;;4924583;29;20126;-90
2023/06/22 09:09:28;;;;;;;9.95;6.55;;;24.00;99.90;;;;;;4937977;29;20083;-91
2023/06/22 09:11:53;;;;;;;10.38;5.63;;;24.00;99.90;;;;;;4918433;29;20073;-90
2023/06/22 09:14:19;;;;;;;9.80;6.65;;;24.10;99.90;;;;;;4935860;29;20051;-90
2023/06/22 09:16:45;;;;;;;10.73;6.63;;;24.10;99.90;;;;;;4948181;29;20039;-90
2023/06/22 09:19:10;;;;;;;10.15;6.55;;;24.10;99.90;;;;;;4941988;29;20156;-89
2023/06/22 09:21:36;;;;;;;11.25;6.75;;;24.10;99.90;;;;;;4945258;29;20051;-89
2023/06/22 09:24:02;;;;;;;13.02;7.18;;;24.20;99.90;;;;;;4932355;29;20051;-90
2023/06/22 09:26:28;;;;;;;10.93;7.80;;;24.20;99.90;;;;;;4944263;29;20491;-89
2023/06/22 09:28:54;;;;;;;10.77;7.60;;;24.30;99.90;;;;;;4934260;28;20055;-89
2023/06/22 09:31:25;;;;;;;8.55;6.25;;;24.30;99.90;;;;;;4921033;29;20143;-90
2023/06/22 09:33:52;;;;;;;9.57;6.70;;;24.40;99.90;;;;;;4931165;29;20052;-89
2023/06/22 09:36:18;;;;;;;10.98;6.93;;;24.40;99.90;;;;;;4936233;29;20039;-89
2023/06/22 09:38:44;;;;;;;8.05;5.25;;;24.50;99.90;;;;;;4944731;29;20046;-90
2023/06/22 09:41:09;;;;;;;11.25;6.70;;;24.60;99.90;;;;;;4945952;29;20048;-88
2023/06/22 09:43:36;;;;;;;8.27;6.63;;;24.60;99.90;;;;;;4946008;29;20063;-89
2023/06/22 09:46:02;;;;;;;10.30;6.70;;;24.80;99.90;;;;;;4928541;29;20146;-90
2023/06/22 09:48:29;;;;;;;10.80;5.93;;;24.80;99.90;;;;;;4943985;29;20115;-88
2023/06/22 09:50:55;;;;;;;9.60;6.28;;;24.90;99.90;;;;;;4943461;29;20100;-90
2023/06/22 09:53:20;;;;;;;8.85;6.25;;;25.00;99.90;;;;;;4951028;28;20546;-89
2023/06/22 09:55:46;;;;;;;12.05;6.20;;;25.00;99.90;;;;;;4937671;29;20047;-89
2023/06/22 09:58:12;;;;;;;8.43;4.90;;;25.10;99.90;;;;;;4942683;29;20438;-89
2023/06/22 10:00:38;;;;;;;8.48;5.72;;;25.20;99.90;;;;;;4927176;29;20039;-88
2023/06/22 10:03:03;;;;;;;9.52;5.80;;;25.30;99.90;;;;;;4922954;29;20048;-90
2023/06/22 10:05:29;;;;;;;7.78;4.30;;;25.30;99.90;;;;;;4932225;29;20598;-88
2023/06/22 10:07:54;;;;;;;9.90;4.75;;;25.40;99.90;;;;;;4932237;29;20086;-89
2023/06/22 10:10:20;;;;;;;10.38;5.05;;;25.50;99.90;;;;;;4943786;29;20122;-92
2023/06/22 10:12:47;;;;;;;9.60;6.10;;;25.60;99.90;;;;;;4946238;29;20494;-92
2023/06/22 10:15:14;;;;;;;8.15;4.85;;;25.60;99.90;;;;;;4919911;29;20055;-91
2023/06/22 10:17:40;;;;;;;8.80;5.55;;;25.60;99.90;;;;;;4944016;29;20130;-91
2023/06/22 10:20:11;;;;;;;10.13;5.57;;;25.60;99.90;;;;;;4932391;29;20122;-91
2023/06/22 10:22:44;;;;;;;10.98;4.68;;;25.60;99.90;;;;;;4925985;29;20047;-92
2023/06/22 10:25:11;;;;;;;9.95;5.07;;;25.60;99.90;;;;;;4938202;29;20032;-92
2023/06/22 10:27:39;;;;;;;10.02;5.78;;;25.50;99.90;;;;;;4931859;29;20102;-91
2023/06/22 10:30:09;;;;;;;8.68;5.25;;;25.50;99.90;;;;;;4924217;29;20081;-91
2023/06/22 10:32:37;;;;;;;9.90;4.82;;;25.60;99.90;;;;;;4930299;29;20049;-92
2023/06/22 10:35:03;;;;;;;6.88;4.50;;;25.60;99.90;;;;;;4930203;29;20085;-91
2023/06/22 10:37:29;;;;;;;10.13;5.57;;;25.60;99.90;;;;;;4917823;29;20043;-91
2023/06/22 10:39:54;;;;;;;7.40;4.32;;;25.70;99.90;;;;;;4911246;28;20054;-92
2023/06/22 10:42:20;;;;;;;7.72;5.43;;;25.80;99.90;;;;;;4930607;29;20123;-90
2023/06/22 10:44:46;;;;;;;8.70;4.30;;;25.90;99.90;;;;;;4927070;29;20036;-89
2023/06/22 10:47:12;;;;;;;9.63;5.88;;;26.00;99.90;;;;;;4926828;29;20547;-89
2023/06/22 10:49:39;;;;;;;7.05;4.60;;;26.10;99.90;;;;;;4940955;29;20163;-88
2023/06/22 10:52:06;;;;;;;7.63;4.07;;;26.10;99.90;;;;;;4929246;29;20039;-86
2023/06/22 10:54:36;;;;;;;10.75;5.65;;;26.20;99.90;;;;;;4940009;28;20039;-88
2023/06/22 10:57:02;;;;;;;8.35;4.68;;;26.30;99.50;;;;;;4926760;29;20165;-87
2023/06/22 10:59:29;;;;;;;7.97;4.53;;;26.30;99.90;;;;;;4927687;29;20046;-88
2023/06/22 11:01:58;;;;;;;7.47;4.53;;;26.30;99.90;;;;;;4923600;29;20039;-87
2023/06/22 11:04:25;;;;;;;8.68;5.75;;;26.30;99.60;;;;;;4928435;29;20439;-87
2023/06/22 11:06:51;;;;;;;8.82;4.28;;;26.40;99.90;;;;;;4928250;29;20042;-87
2023/06/22 11:09:21;;;;;;;12.43;5.45;;;26.40;99.80;;;;;;4931816;28;20043;-88
2023/06/22 11:11:48;;;;;;;8.18;5.07;;;26.40;99.70;;;;;;4946110;29;20039;-90
2023/06/22 11:14:14;;;;;;;9.40;4.40;;;26.50;99.40;;;;;;4917561;29;20126;-88
2023/06/22 11:16:39;;;;;;;8.75;4.32;;;26.50;99.70;;;;;;4936113;29;20039;-89
2023/06/22 11:19:06;;;;;;;7.13;4.72;;;26.50;99.40;;;;;;4929228;29;20055;-88
2023/06/22 11:21:32;;;;;;;8.43;5.22;;;26.50;99.50;;;;;;4915444;29;20169;-88
2023/06/22 11:23:59;;;;;;;8.85;5.75;;;26.60;99.30;;;;;;4944497;29;20118;-89
2023/06/22 11:26:27;;;;;;;6.05;4.60;;;26.50;99.30;;;;;;4942065;28;20044;-88
2023/06/22 11:28:53;;;;;;;9.52;5.40;;;26.50;99.50;;;;;;4937096;28;20521;-89
2023/06/22 11:31:19;;;;;;;10.10;5.82;;;26.50;99.10;;;;;;4941560;29;20075;-88
2023/06/22 11:33:47;;;;;;;9.75;4.63;;;26.40;98.70;;;;;;4922877;29;20078;-92
2023/06/22 11:36:14;;;;;;;7.28;4.80;;;26.40;98.90;;;;;;4927716;29;20093;-87
2023/06/22 11:38:40;;;;;;;6.68;4.38;;;26.30;99.20;;;;;;4941263;29;20076;-88
2023/06/22 11:41:06;;;;;;;7.70;3.92;;;26.30;99.50;;;;;;4930520;29;20070;-88
2023/06/22 11:43:32;;;;;;;8.85;4.80;;;26.30;99.60;;;;;;4943188;28;20049;-90
2023/06/22 11:45:58;;;;;;;9.13;5.22;;;26.20;98.90;;;;;;4944369;28;20115;-89
2023/06/22 11:48:26;;;;;;;7.82;4.35;;;26.10;98.60;;;;;;4930252;29;20082;-91
2023/06/22 11:50:52;;;;;;;5.88;4.32;;;26.20;99.50;;;;;;4928189;28;20107;-91
2023/06/22 11:53:18;;;;;;;9.38;4.20;;;26.20;99.30;;;;;;4914191;29;20123;-90
2023/06/22 11:55:44;;;;;;;10.65;4.80;;;26.30;99.50;;;;;;4927999;29;20046;-90
2023/06/22 11:58:11;;;;;;;9.15;4.68;;;26.40;99.60;;;;;;4925246;29;20051;-90
2023/06/22 12:00:37;;;;;;;6.75;4.18;;;26.50;99.20;;;;;;4930579;29;20075;-90
2023/06/22 12:03:03;;;;;;;8.45;4.85;;;26.60;99.20;;;;;;4926264;29;20031;-90
2023/06/22 12:05:29;;;;;;;6.95;3.97;;;26.70;99.20;;;;;;4923121;29;20058;-90
2023/06/22 12:07:55;;;;;;;6.57;4.18;;;26.70;99.30;;;;;;4940636;29;20346;-91
2023/06/22 12:10:22;;;;;;;9.00;4.22;;;26.80;99.20;;;;;;4930737;28;20047;-90
2023/06/22 12:12:47;;;;;;;7.05;4.60;;;26.70;98.20;;;;;;4920421;29;20047;-90
2023/06/22 12:15:13;;;;;;;6.70;3.95;;;26.70;97.90;;;;;;4909725;29;20047;-91
2023/06/22 12:17:40;;;;;;;5.88;3.88;;;26.70;98.40;;;;;;4940405;28;20047;-90
2023/06/22 12:20:07;;;;;;;7.00;4.40;;;26.70;98.50;;;;;;4926186;29;20376;-90
2023/06/22 12:22:33;;;;;;;6.03;4.38;;;26.80;98.70;;;;;;4940422;29;20066;-90
2023/06/22 12:24:59;;;;;;;7.03;4.22;;;26.70;98.10;;;;;;4922009;29;20090;-90
2023/06/22 12:27:25;;;;;;;10.63;4.90;;;26.80;98.10;;;;;;4942061;29;20051;-90
2023/06/22 12:29:51;;;;;;;6.97;3.90;;;26.70;98.10;;;;;;4942944;29;20114;-91
2023/06/22 12:32:17;;;;;;;7.40;4.13;;;26.70;98.20;;;;;;4940846;29;20110;-92
2023/06/22 12:34:43;;;;;;;7.88;4.40;;;26.80;98.80;;;;;;4932316;29;20043;-92